sensor_id;sensor_type;location;lat;lon;timestamp;P1;durP1;ratioP1;P2;durP2;ratioP2
55700;SDS011;41604;43.142;20.512;2024-02-04T00:00:01;499.95;;;327.98;;
55700;SDS011;41604;43.142;20.512;2024-02-04T00:02:28;274.95;;;154.80;;
55700;SDS011;41604;43.142;20.512;2024-02-04T00:04:53;324.42;;;195.18;;
55700;SDS011;41604;43.142;20.512;2024-02-04T00:07:19;405.63;;;253.10;;
55700;SDS011;41604;43.142;20.512;2024-02-04T00:09:45;268.60;;;163.35;;
55700;SDS011;41604;43.142;20.512;2024-02-04T00:12:11;319.25;;;197.73;;
55700;SDS011;41604;43.142;20.512;2024-02-04T00:14:36;305.70;;;188.77;;
55700;SDS011;41604;43.142;20.512;2024-02-04T00:17:02;318.10;;;193.10;;
55700;SDS011;41604;43.142;20.512;2024-02-04T00:19:28;338.88;;;211.93;;
55700;SDS011;41604;43.142;20.512;2024-02-04T00:21:54;264.13;;;161.00;;
55700;SDS011;41604;43.142;20.512;2024-02-04T00:24:20;277.65;;;165.52;;
55700;SDS011;41604;43.142;20.512;2024-02-04T00:26:46;221.93;;;135.95;;
55700;SDS011;41604;43.142;20.512;2024-02-04T00:29:12;171.30;;;105.38;;
55700;SDS011;41604;43.142;20.512;2024-02-04T00:31:38;158.95;;;98.28;;
55700;SDS011;41604;43.142;20.512;2024-02-04T00:34:04;227.55;;;139.93;;
55700;SDS011;41604;43.142;20.512;2024-02-04T00:36:30;165.55;;;102.88;;
55700;SDS011;41604;43.142;20.512;2024-02-04T00:38:56;139.63;;;87.50;;
55700;SDS011;41604;43.142;20.512;2024-02-04T00:41:22;141.55;;;86.40;;
55700;SDS011;41604;43.142;20.512;2024-02-04T00:43:47;119.38;;;73.15;;
55700;SDS011;41604;43.142;20.512;2024-02-04T00:46:13;114.53;;;68.43;;
55700;SDS011;41604;43.142;20.512;2024-02-04T00:48:39;108.43;;;64.55;;
55700;SDS011;41604;43.142;20.512;2024-02-04T00:51:07;104.93;;;61.25;;
55700;SDS011;41604;43.142;20.512;2024-02-04T00:53:33;95.85;;;58.75;;
55700;SDS011;41604;43.142;20.512;2024-02-04T00:56:08;106.05;;;65.55;;
55700;SDS011;41604;43.142;20.512;2024-02-04T00:58:34;123.35;;;75.25;;
55700;SDS011;41604;43.142;20.512;2024-02-04T01:01:00;121.75;;;69.53;;
55700;SDS011;41604;43.142;20.512;2024-02-04T01:03:26;105.50;;;61.78;;
55700;SDS011;41604;43.142;20.512;2024-02-04T01:05:52;86.78;;;52.47;;
55700;SDS011;41604;43.142;20.512;2024-02-04T01:08:18;83.57;;;52.58;;
55700;SDS011;41604;43.142;20.512;2024-02-04T01:10:43;93.00;;;53.67;;
55700;SDS011;41604;43.142;20.512;2024-02-04T01:13:09;88.90;;;51.35;;
55700;SDS011;41604;43.142;20.512;2024-02-04T01:15:35;95.65;;;57.13;;
55700;SDS011;41604;43.142;20.512;2024-02-04T01:18:01;91.30;;;55.33;;
55700;SDS011;41604;43.142;20.512;2024-02-04T01:20:27;109.72;;;67.28;;
55700;SDS011;41604;43.142;20.512;2024-02-04T01:22:52;92.43;;;56.28;;
55700;SDS011;41604;43.142;20.512;2024-02-04T01:25:18;99.93;;;58.60;;
55700;SDS011;41604;43.142;20.512;2024-02-04T01:27:44;107.18;;;58.80;;
55700;SDS011;41604;43.142;20.512;2024-02-04T01:30:10;117.70;;;68.88;;
55700;SDS011;41604;43.142;20.512;2024-02-04T01:32:36;118.28;;;70.28;;
55700;SDS011;41604;43.142;20.512;2024-02-04T01:35:02;145.45;;;83.55;;
55700;SDS011;41604;43.142;20.512;2024-02-04T01:37:28;167.60;;;96.40;;
55700;SDS011;41604;43.142;20.512;2024-02-04T01:39:53;200.88;;;105.82;;
55700;SDS011;41604;43.142;20.512;2024-02-04T01:42:19;153.32;;;91.78;;
55700;SDS011;41604;43.142;20.512;2024-02-04T01:44:45;156.23;;;92.18;;
55700;SDS011;41604;43.142;20.512;2024-02-04T01:47:11;139.35;;;86.80;;
55700;SDS011;41604;43.142;20.512;2024-02-04T01:49:37;153.98;;;96.22;;
55700;SDS011;41604;43.142;20.512;2024-02-04T01:52:03;164.65;;;97.65;;
55700;SDS011;41604;43.142;20.512;2024-02-04T01:54:31;155.23;;;93.97;;
55700;SDS011;41604;43.142;20.512;2024-02-04T01:56:58;142.43;;;87.78;;
55700;SDS011;41604;43.142;20.512;2024-02-04T01:59:29;211.80;;;123.45;;
55700;SDS011;41604;43.142;20.512;2024-02-04T02:02:01;215.95;;;127.28;;
55700;SDS011;41604;43.142;20.512;2024-02-04T02:04:28;192.98;;;117.70;;
55700;SDS011;41604;43.142;20.512;2024-02-04T02:06:54;272.30;;;143.98;;
55700;SDS011;41604;43.142;20.512;2024-02-04T02:09:20;197.75;;;116.20;;
55700;SDS011;41604;43.142;20.512;2024-02-04T02:14:41;192.15;;;114.32;;
55700;SDS011;41604;43.142;20.512;2024-02-04T02:17:12;178.15;;;107.90;;
55700;SDS011;41604;43.142;20.512;2024-02-04T02:27:25;224.20;;;130.48;;
55700;SDS011;41604;43.142;20.512;2024-02-04T02:29:51;185.80;;;108.55;;
55700;SDS011;41604;43.142;20.512;2024-02-04T02:32:17;212.32;;;121.88;;
55700;SDS011;41604;43.142;20.512;2024-02-04T02:34:43;239.63;;;130.50;;
55700;SDS011;41604;43.142;20.512;2024-02-04T02:40:25;243.18;;;137.20;;
55700;SDS011;41604;43.142;20.512;2024-02-04T02:42:55;219.50;;;127.57;;
55700;SDS011;41604;43.142;20.512;2024-02-04T02:45:24;223.32;;;124.63;;
55700;SDS011;41604;43.142;20.512;2024-02-04T02:47:52;197.75;;;119.78;;
55700;SDS011;41604;43.142;20.512;2024-02-04T02:50:19;206.30;;;124.55;;
55700;SDS011;41604;43.142;20.512;2024-02-04T02:52:45;207.02;;;125.22;;
55700;SDS011;41604;43.142;20.512;2024-02-04T02:55:11;250.65;;;150.73;;
55700;SDS011;41604;43.142;20.512;2024-02-04T02:57:37;211.50;;;126.38;;
55700;SDS011;41604;43.142;20.512;2024-02-04T03:00:03;191.63;;;117.30;;
55700;SDS011;41604;43.142;20.512;2024-02-04T03:02:30;190.18;;;113.90;;
55700;SDS011;41604;43.142;20.512;2024-02-04T03:04:57;172.60;;;107.28;;
55700;SDS011;41604;43.142;20.512;2024-02-04T03:07:22;187.32;;;112.65;;
55700;SDS011;41604;43.142;20.512;2024-02-04T03:09:48;175.05;;;103.07;;
55700;SDS011;41604;43.142;20.512;2024-02-04T03:12:14;168.77;;;99.78;;
55700;SDS011;41604;43.142;20.512;2024-02-04T03:14:40;155.60;;;93.53;;
55700;SDS011;41604;43.142;20.512;2024-02-04T03:17:05;151.25;;;93.28;;
55700;SDS011;41604;43.142;20.512;2024-02-04T03:19:31;189.38;;;110.18;;
55700;SDS011;41604;43.142;20.512;2024-02-04T03:21:57;174.55;;;103.53;;
55700;SDS011;41604;43.142;20.512;2024-02-04T03:24:23;166.30;;;97.95;;
55700;SDS011;41604;43.142;20.512;2024-02-04T03:26:48;130.52;;;79.70;;
55700;SDS011;41604;43.142;20.512;2024-02-04T03:29:14;117.28;;;71.47;;
55700;SDS011;41604;43.142;20.512;2024-02-04T03:31:40;119.35;;;71.10;;
55700;SDS011;41604;43.142;20.512;2024-02-04T03:34:06;108.32;;;64.90;;
55700;SDS011;41604;43.142;20.512;2024-02-04T03:36:31;94.85;;;58.92;;
55700;SDS011;41604;43.142;20.512;2024-02-04T03:38:57;89.28;;;53.92;;
55700;SDS011;41604;43.142;20.512;2024-02-04T03:41:23;87.20;;;51.97;;
55700;SDS011;41604;43.142;20.512;2024-02-04T03:43:49;98.15;;;57.72;;
55700;SDS011;41604;43.142;20.512;2024-02-04T03:46:15;108.93;;;66.22;;
55700;SDS011;41604;43.142;20.512;2024-02-04T03:48:41;111.30;;;63.90;;
55700;SDS011;41604;43.142;20.512;2024-02-04T03:51:07;123.72;;;73.43;;
55700;SDS011;41604;43.142;20.512;2024-02-04T03:53:33;138.93;;;81.18;;
55700;SDS011;41604;43.142;20.512;2024-02-04T03:55:59;137.73;;;79.50;;
55700;SDS011;41604;43.142;20.512;2024-02-04T03:58:25;144.63;;;83.25;;
55700;SDS011;41604;43.142;20.512;2024-02-04T04:00:57;127.60;;;75.22;;
55700;SDS011;41604;43.142;20.512;2024-02-04T04:03:24;131.13;;;79.22;;
55700;SDS011;41604;43.142;20.512;2024-02-04T04:05:49;128.50;;;78.28;;
55700;SDS011;41604;43.142;20.512;2024-02-04T04:08:15;133.88;;;81.35;;
55700;SDS011;41604;43.142;20.512;2024-02-04T04:10:43;144.57;;;89.90;;
55700;SDS011;41604;43.142;20.512;2024-02-04T04:13:08;136.80;;;83.90;;
55700;SDS011;41604;43.142;20.512;2024-02-04T04:15:34;134.10;;;81.32;;
55700;SDS011;41604;43.142;20.512;2024-02-04T04:18:00;161.45;;;94.03;;
55700;SDS011;41604;43.142;20.512;2024-02-04T04:20:26;157.05;;;93.40;;
55700;SDS011;41604;43.142;20.512;2024-02-04T04:22:52;157.18;;;93.22;;
55700;SDS011;41604;43.142;20.512;2024-02-04T04:25:17;151.27;;;90.18;;
55700;SDS011;41604;43.142;20.512;2024-02-04T04:27:43;141.32;;;80.72;;
55700;SDS011;41604;43.142;20.512;2024-02-04T04:30:09;133.55;;;79.63;;
55700;SDS011;41604;43.142;20.512;2024-02-04T04:32:35;125.35;;;75.35;;
55700;SDS011;41604;43.142;20.512;2024-02-04T04:35:01;124.28;;;77.03;;
55700;SDS011;41604;43.142;20.512;2024-02-04T04:37:27;138.93;;;83.20;;
55700;SDS011;41604;43.142;20.512;2024-02-04T04:39:53;145.20;;;87.22;;
55700;SDS011;41604;43.142;20.512;2024-02-04T04:42:19;159.32;;;94.00;;
55700;SDS011;41604;43.142;20.512;2024-02-04T04:44:45;140.75;;;84.43;;
55700;SDS011;41604;43.142;20.512;2024-02-04T04:47:11;151.05;;;88.43;;
55700;SDS011;41604;43.142;20.512;2024-02-04T04:49:37;138.57;;;85.68;;
55700;SDS011;41604;43.142;20.512;2024-02-04T04:52:03;126.57;;;78.55;;
55700;SDS011;41604;43.142;20.512;2024-02-04T04:54:29;126.70;;;75.95;;
55700;SDS011;41604;43.142;20.512;2024-02-04T04:56:55;126.88;;;79.53;;
55700;SDS011;41604;43.142;20.512;2024-02-04T04:59:20;130.85;;;80.22;;
55700;SDS011;41604;43.142;20.512;2024-02-04T05:01:47;130.15;;;77.60;;
55700;SDS011;41604;43.142;20.512;2024-02-04T05:04:13;129.98;;;79.65;;
55700;SDS011;41604;43.142;20.512;2024-02-04T05:06:39;239.68;;;126.00;;
55700;SDS011;41604;43.142;20.512;2024-02-04T05:09:05;365.13;;;160.77;;
55700;SDS011;41604;43.142;20.512;2024-02-04T05:11:31;172.25;;;97.63;;
55700;SDS011;41604;43.142;20.512;2024-02-04T05:13:57;195.10;;;106.40;;
55700;SDS011;41604;43.142;20.512;2024-02-04T05:16:23;195.90;;;109.47;;
55700;SDS011;41604;43.142;20.512;2024-02-04T05:18:48;183.25;;;107.68;;
55700;SDS011;41604;43.142;20.512;2024-02-04T05:21:14;153.15;;;94.45;;
55700;SDS011;41604;43.142;20.512;2024-02-04T05:23:40;156.25;;;95.03;;
55700;SDS011;41604;43.142;20.512;2024-02-04T05:26:06;155.93;;;95.55;;
55700;SDS011;41604;43.142;20.512;2024-02-04T05:28:32;154.73;;;96.55;;
55700;SDS011;41604;43.142;20.512;2024-02-04T05:30:58;146.27;;;92.75;;
55700;SDS011;41604;43.142;20.512;2024-02-04T05:33:24;128.20;;;79.80;;
55700;SDS011;41604;43.142;20.512;2024-02-04T05:35:49;123.80;;;74.78;;
55700;SDS011;41604;43.142;20.512;2024-02-04T05:38:21;116.30;;;70.60;;
55700;SDS011;41604;43.142;20.512;2024-02-04T05:40:47;106.95;;;66.75;;
55700;SDS011;41604;43.142;20.512;2024-02-04T05:43:13;112.00;;;67.13;;
55700;SDS011;41604;43.142;20.512;2024-02-04T05:45:39;121.43;;;71.60;;
55700;SDS011;41604;43.142;20.512;2024-02-04T05:48:07;111.78;;;69.10;;
55700;SDS011;41604;43.142;20.512;2024-02-04T05:50:34;107.25;;;67.05;;
55700;SDS011;41604;43.142;20.512;2024-02-04T05:52:59;104.38;;;64.50;;
55700;SDS011;41604;43.142;20.512;2024-02-04T05:55:25;99.25;;;59.15;;
55700;SDS011;41604;43.142;20.512;2024-02-04T05:57:51;96.28;;;58.67;;
55700;SDS011;41604;43.142;20.512;2024-02-04T06:00:17;86.20;;;50.25;;
55700;SDS011;41604;43.142;20.512;2024-02-04T06:02:43;85.97;;;49.90;;
55700;SDS011;41604;43.142;20.512;2024-02-04T06:05:09;76.32;;;44.80;;
55700;SDS011;41604;43.142;20.512;2024-02-04T06:07:36;76.28;;;46.63;;
55700;SDS011;41604;43.142;20.512;2024-02-04T06:10:02;82.30;;;49.28;;
55700;SDS011;41604;43.142;20.512;2024-02-04T06:12:31;91.25;;;55.33;;
55700;SDS011;41604;43.142;20.512;2024-02-04T06:14:56;100.00;;;61.17;;
55700;SDS011;41604;43.142;20.512;2024-02-04T06:17:22;89.13;;;53.70;;
55700;SDS011;41604;43.142;20.512;2024-02-04T06:19:48;106.05;;;63.45;;
55700;SDS011;41604;43.142;20.512;2024-02-04T06:22:15;97.53;;;57.22;;
55700;SDS011;41604;43.142;20.512;2024-02-04T06:24:40;92.90;;;54.50;;
55700;SDS011;41604;43.142;20.512;2024-02-04T06:27:07;96.65;;;58.60;;
55700;SDS011;41604;43.142;20.512;2024-02-04T06:29:33;143.50;;;80.47;;
55700;SDS011;41604;43.142;20.512;2024-02-04T06:31:59;158.73;;;96.45;;
55700;SDS011;41604;43.142;20.512;2024-02-04T06:34:25;183.38;;;111.53;;
55700;SDS011;41604;43.142;20.512;2024-02-04T06:36:50;192.52;;;117.03;;
55700;SDS011;41604;43.142;20.512;2024-02-04T06:39:16;154.27;;;96.25;;
55700;SDS011;41604;43.142;20.512;2024-02-04T06:41:42;126.70;;;77.55;;
55700;SDS011;41604;43.142;20.512;2024-02-04T06:44:08;127.05;;;77.53;;
55700;SDS011;41604;43.142;20.512;2024-02-04T06:46:35;123.65;;;76.72;;
55700;SDS011;41604;43.142;20.512;2024-02-04T06:49:01;131.30;;;78.45;;
55700;SDS011;41604;43.142;20.512;2024-02-04T06:51:27;128.38;;;81.18;;
55700;SDS011;41604;43.142;20.512;2024-02-04T06:53:53;145.68;;;92.43;;
55700;SDS011;41604;43.142;20.512;2024-02-04T06:56:18;152.20;;;95.25;;
55700;SDS011;41604;43.142;20.512;2024-02-04T06:58:44;164.02;;;106.90;;
55700;SDS011;41604;43.142;20.512;2024-02-04T07:01:11;169.88;;;108.53;;
55700;SDS011;41604;43.142;20.512;2024-02-04T07:03:37;185.60;;;118.00;;
55700;SDS011;41604;43.142;20.512;2024-02-04T07:06:03;171.48;;;111.43;;
55700;SDS011;41604;43.142;20.512;2024-02-04T07:08:29;179.32;;;111.55;;
55700;SDS011;41604;43.142;20.512;2024-02-04T07:10:55;170.60;;;111.47;;
55700;SDS011;41604;43.142;20.512;2024-02-04T07:13:21;192.10;;;121.75;;
55700;SDS011;41604;43.142;20.512;2024-02-04T07:15:47;272.50;;;181.57;;
55700;SDS011;41604;43.142;20.512;2024-02-04T07:18:13;249.15;;;166.60;;
55700;SDS011;41604;43.142;20.512;2024-02-04T07:20:39;188.73;;;120.03;;
55700;SDS011;41604;43.142;20.512;2024-02-04T07:23:05;180.90;;;115.50;;
55700;SDS011;41604;43.142;20.512;2024-02-04T07:25:31;175.70;;;116.80;;
55700;SDS011;41604;43.142;20.512;2024-02-04T07:27:57;182.93;;;116.43;;
55700;SDS011;41604;43.142;20.512;2024-02-04T07:30:23;188.63;;;122.90;;
55700;SDS011;41604;43.142;20.512;2024-02-04T07:32:49;202.20;;;131.68;;
55700;SDS011;41604;43.142;20.512;2024-02-04T07:35:15;181.40;;;118.88;;
55700;SDS011;41604;43.142;20.512;2024-02-04T07:37:41;174.52;;;117.70;;
55700;SDS011;41604;43.142;20.512;2024-02-04T07:40:07;171.75;;;118.53;;
55700;SDS011;41604;43.142;20.512;2024-02-04T07:42:33;183.77;;;124.72;;
55700;SDS011;41604;43.142;20.512;2024-02-04T07:44:59;181.68;;;125.05;;
55700;SDS011;41604;43.142;20.512;2024-02-04T07:47:26;181.60;;;122.82;;
55700;SDS011;41604;43.142;20.512;2024-02-04T07:49:52;203.18;;;139.32;;
55700;SDS011;41604;43.142;20.512;2024-02-04T07:52:18;198.70;;;141.18;;
55700;SDS011;41604;43.142;20.512;2024-02-04T07:54:43;213.88;;;147.07;;
55700;SDS011;41604;43.142;20.512;2024-02-04T07:57:09;226.95;;;157.57;;
55700;SDS011;41604;43.142;20.512;2024-02-04T07:59:38;194.45;;;137.00;;
55700;SDS011;41604;43.142;20.512;2024-02-04T08:02:04;227.70;;;163.57;;
55700;SDS011;41604;43.142;20.512;2024-02-04T08:04:32;231.98;;;163.07;;
55700;SDS011;41604;43.142;20.512;2024-02-04T08:06:57;215.07;;;153.43;;
55700;SDS011;41604;43.142;20.512;2024-02-04T08:09:23;224.85;;;160.18;;
55700;SDS011;41604;43.142;20.512;2024-02-04T08:11:52;221.70;;;154.82;;
55700;SDS011;41604;43.142;20.512;2024-02-04T08:14:18;229.60;;;159.77;;
55700;SDS011;41604;43.142;20.512;2024-02-04T08:16:43;286.00;;;196.23;;
55700;SDS011;41604;43.142;20.512;2024-02-04T08:19:12;217.35;;;146.65;;
55700;SDS011;41604;43.142;20.512;2024-02-04T08:21:38;247.73;;;174.02;;
55700;SDS011;41604;43.142;20.512;2024-02-04T08:24:04;246.90;;;178.35;;
55700;SDS011;41604;43.142;20.512;2024-02-04T08:26:30;201.20;;;141.97;;
55700;SDS011;41604;43.142;20.512;2024-02-04T08:28:59;236.13;;;158.38;;
55700;SDS011;41604;43.142;20.512;2024-02-04T08:31:25;265.65;;;168.93;;
55700;SDS011;41604;43.142;20.512;2024-02-04T08:33:51;272.83;;;177.15;;
55700;SDS011;41604;43.142;20.512;2024-02-04T08:36:18;256.13;;;150.88;;
55700;SDS011;41604;43.142;20.512;2024-02-04T08:38:46;132.85;;;99.35;;
55700;SDS011;41604;43.142;20.512;2024-02-04T08:41:18;133.43;;;94.47;;
55700;SDS011;41604;43.142;20.512;2024-02-04T08:43:44;96.63;;;69.38;;
55700;SDS011;41604;43.142;20.512;2024-02-04T08:46:10;88.78;;;62.08;;
55700;SDS011;41604;43.142;20.512;2024-02-04T08:48:35;105.30;;;75.60;;
55700;SDS011;41604;43.142;20.512;2024-02-04T08:51:02;107.13;;;75.18;;
55700;SDS011;41604;43.142;20.512;2024-02-04T08:53:28;135.00;;;89.95;;
55700;SDS011;41604;43.142;20.512;2024-02-04T08:55:56;130.95;;;96.55;;
55700;SDS011;41604;43.142;20.512;2024-02-04T08:58:22;112.97;;;82.50;;
55700;SDS011;41604;43.142;20.512;2024-02-04T09:00:48;112.00;;;82.95;;
55700;SDS011;41604;43.142;20.512;2024-02-04T09:03:13;115.63;;;84.68;;
55700;SDS011;41604;43.142;20.512;2024-02-04T09:05:39;119.40;;;87.38;;
55700;SDS011;41604;43.142;20.512;2024-02-04T09:10:51;124.53;;;83.88;;
55700;SDS011;41604;43.142;20.512;2024-02-04T09:13:17;96.28;;;69.88;;
55700;SDS011;41604;43.142;20.512;2024-02-04T09:15:43;83.55;;;61.33;;
55700;SDS011;41604;43.142;20.512;2024-02-04T09:18:09;80.10;;;57.05;;
55700;SDS011;41604;43.142;20.512;2024-02-04T09:20:35;66.60;;;45.17;;
55700;SDS011;41604;43.142;20.512;2024-02-04T09:23:00;68.85;;;46.67;;
55700;SDS011;41604;43.142;20.512;2024-02-04T09:25:26;59.30;;;41.80;;
55700;SDS011;41604;43.142;20.512;2024-02-04T09:27:54;53.75;;;38.08;;
55700;SDS011;41604;43.142;20.512;2024-02-04T09:30:20;46.65;;;32.05;;
55700;SDS011;41604;43.142;20.512;2024-02-04T09:32:48;45.08;;;28.60;;
55700;SDS011;41604;43.142;20.512;2024-02-04T09:35:15;42.03;;;28.02;;
55700;SDS011;41604;43.142;20.512;2024-02-04T09:37:47;38.38;;;24.98;;
55700;SDS011;41604;43.142;20.512;2024-02-04T09:40:13;32.00;;;21.95;;
55700;SDS011;41604;43.142;20.512;2024-02-04T09:42:39;25.63;;;14.77;;
55700;SDS011;41604;43.142;20.512;2024-02-04T09:45:06;25.27;;;15.50;;
55700;SDS011;41604;43.142;20.512;2024-02-04T09:47:33;32.28;;;19.98;;
55700;SDS011;41604;43.142;20.512;2024-02-04T09:50:00;18.83;;;10.90;;
55700;SDS011;41604;43.142;20.512;2024-02-04T09:52:28;11.73;;;6.72;;
55700;SDS011;41604;43.142;20.512;2024-02-04T09:55:00;13.88;;;9.95;;
55700;SDS011;41604;43.142;20.512;2024-02-04T09:57:31;18.85;;;12.30;;
55700;SDS011;41604;43.142;20.512;2024-02-04T09:59:59;24.38;;;16.83;;
55700;SDS011;41604;43.142;20.512;2024-02-04T10:02:25;19.95;;;14.57;;
55700;SDS011;41604;43.142;20.512;2024-02-04T10:04:51;25.60;;;17.48;;
55700;SDS011;41604;43.142;20.512;2024-02-04T10:07:17;27.02;;;16.55;;
55700;SDS011;41604;43.142;20.512;2024-02-04T10:09:44;24.42;;;15.90;;
55700;SDS011;41604;43.142;20.512;2024-02-04T10:12:10;19.30;;;14.73;;
55700;SDS011;41604;43.142;20.512;2024-02-04T10:14:36;25.65;;;16.30;;
55700;SDS011;41604;43.142;20.512;2024-02-04T10:17:03;20.73;;;13.65;;
55700;SDS011;41604;43.142;20.512;2024-02-04T10:19:30;27.85;;;16.10;;
55700;SDS011;41604;43.142;20.512;2024-02-04T10:22:02;23.15;;;14.05;;
55700;SDS011;41604;43.142;20.512;2024-02-04T10:24:29;9.30;;;6.25;;
55700;SDS011;41604;43.142;20.512;2024-02-04T10:26:55;12.63;;;6.75;;
55700;SDS011;41604;43.142;20.512;2024-02-04T10:29:25;10.77;;;6.65;;
55700;SDS011;41604;43.142;20.512;2024-02-04T10:31:55;13.65;;;6.88;;
55700;SDS011;41604;43.142;20.512;2024-02-04T10:34:22;14.63;;;8.10;;
55700;SDS011;41604;43.142;20.512;2024-02-04T10:36:48;15.18;;;7.93;;
55700;SDS011;41604;43.142;20.512;2024-02-04T10:39:14;10.55;;;5.18;;
55700;SDS011;41604;43.142;20.512;2024-02-04T10:41:44;9.85;;;5.57;;
55700;SDS011;41604;43.142;20.512;2024-02-04T10:46:39;10.25;;;5.00;;
55700;SDS011;41604;43.142;20.512;2024-02-04T10:49:05;11.93;;;5.85;;
55700;SDS011;41604;43.142;20.512;2024-02-04T10:51:35;9.70;;;5.68;;
55700;SDS011;41604;43.142;20.512;2024-02-04T10:54:02;11.75;;;6.03;;
55700;SDS011;41604;43.142;20.512;2024-02-04T10:56:36;13.63;;;6.53;;
55700;SDS011;41604;43.142;20.512;2024-02-04T10:59:03;16.30;;;8.88;;
55700;SDS011;41604;43.142;20.512;2024-02-04T11:01:29;14.90;;;7.60;;
55700;SDS011;41604;43.142;20.512;2024-02-04T11:03:56;14.23;;;6.60;;
55700;SDS011;41604;43.142;20.512;2024-02-04T11:06:23;11.73;;;6.65;;
55700;SDS011;41604;43.142;20.512;2024-02-04T11:08:50;13.60;;;6.45;;
55700;SDS011;41604;43.142;20.512;2024-02-04T11:11:17;10.43;;;5.43;;
55700;SDS011;41604;43.142;20.512;2024-02-04T11:13:43;12.10;;;5.90;;
55700;SDS011;41604;43.142;20.512;2024-02-04T11:22:03;13.48;;;5.85;;
55700;SDS011;41604;43.142;20.512;2024-02-04T11:26:51;14.57;;;8.00;;
55700;SDS011;41604;43.142;20.512;2024-02-04T11:29:17;9.77;;;5.55;;
55700;SDS011;41604;43.142;20.512;2024-02-04T11:31:44;7.05;;;4.30;;
55700;SDS011;41604;43.142;20.512;2024-02-04T11:34:10;8.10;;;4.72;;
55700;SDS011;41604;43.142;20.512;2024-02-04T11:36:39;12.23;;;6.90;;
55700;SDS011;41604;43.142;20.512;2024-02-04T11:39:12;16.25;;;8.15;;
55700;SDS011;41604;43.142;20.512;2024-02-04T11:41:45;9.45;;;6.47;;
55700;SDS011;41604;43.142;20.512;2024-02-04T11:44:20;11.07;;;7.28;;
55700;SDS011;41604;43.142;20.512;2024-02-04T11:46:47;10.43;;;5.80;;
55700;SDS011;41604;43.142;20.512;2024-02-04T11:49:16;10.88;;;4.63;;
55700;SDS011;41604;43.142;20.512;2024-02-04T11:51:46;11.45;;;6.10;;
55700;SDS011;41604;43.142;20.512;2024-02-04T11:54:14;18.33;;;9.63;;
55700;SDS011;41604;43.142;20.512;2024-02-04T11:56:41;13.57;;;6.88;;
55700;SDS011;41604;43.142;20.512;2024-02-04T11:59:07;10.88;;;6.60;;
55700;SDS011;41604;43.142;20.512;2024-02-04T12:01:34;8.88;;;5.38;;
55700;SDS011;41604;43.142;20.512;2024-02-04T12:04:13;17.70;;;7.63;;
55700;SDS011;41604;43.142;20.512;2024-02-04T12:06:42;14.55;;;6.38;;
55700;SDS011;41604;43.142;20.512;2024-02-04T12:09:09;13.45;;;7.00;;
55700;SDS011;41604;43.142;20.512;2024-02-04T12:11:35;10.70;;;5.60;;
55700;SDS011;41604;43.142;20.512;2024-02-04T12:14:05;11.38;;;7.28;;
55700;SDS011;41604;43.142;20.512;2024-02-04T12:16:32;11.55;;;6.97;;
55700;SDS011;41604;43.142;20.512;2024-02-04T12:19:00;16.73;;;8.32;;
55700;SDS011;41604;43.142;20.512;2024-02-04T12:21:29;22.55;;;11.75;;
55700;SDS011;41604;43.142;20.512;2024-02-04T12:23:55;14.90;;;7.35;;
55700;SDS011;41604;43.142;20.512;2024-02-04T12:26:22;15.48;;;8.50;;
55700;SDS011;41604;43.142;20.512;2024-02-04T12:28:49;17.80;;;9.38;;
55700;SDS011;41604;43.142;20.512;2024-02-04T12:31:19;15.48;;;9.20;;
55700;SDS011;41604;43.142;20.512;2024-02-04T12:33:52;16.30;;;9.32;;
55700;SDS011;41604;43.142;20.512;2024-02-04T12:36:19;14.80;;;8.68;;
55700;SDS011;41604;43.142;20.512;2024-02-04T12:38:55;16.60;;;8.35;;
55700;SDS011;41604;43.142;20.512;2024-02-04T12:41:21;12.18;;;6.38;;
55700;SDS011;41604;43.142;20.512;2024-02-04T12:43:55;13.68;;;6.68;;
55700;SDS011;41604;43.142;20.512;2024-02-04T12:46:23;13.32;;;6.28;;
55700;SDS011;41604;43.142;20.512;2024-02-04T12:48:56;10.95;;;5.80;;
55700;SDS011;41604;43.142;20.512;2024-02-04T12:51:34;9.80;;;5.68;;
55700;SDS011;41604;43.142;20.512;2024-02-04T12:54:05;6.28;;;3.60;;
55700;SDS011;41604;43.142;20.512;2024-02-04T12:59:27;16.85;;;5.38;;
55700;SDS011;41604;43.142;20.512;2024-02-04T13:01:55;11.73;;;5.97;;
55700;SDS011;41604;43.142;20.512;2024-02-04T13:04:22;9.52;;;5.30;;
55700;SDS011;41604;43.142;20.512;2024-02-04T13:06:48;12.35;;;4.65;;
55700;SDS011;41604;43.142;20.512;2024-02-04T13:09:14;12.02;;;5.40;;
55700;SDS011;41604;43.142;20.512;2024-02-04T13:11:41;9.90;;;5.15;;
55700;SDS011;41604;43.142;20.512;2024-02-04T13:14:07;12.95;;;5.88;;
55700;SDS011;41604;43.142;20.512;2024-02-04T13:16:33;15.25;;;8.93;;
55700;SDS011;41604;43.142;20.512;2024-02-04T13:19:03;14.02;;;6.28;;
55700;SDS011;41604;43.142;20.512;2024-02-04T13:21:29;15.70;;;8.45;;
55700;SDS011;41604;43.142;20.512;2024-02-04T13:23:55;17.10;;;10.35;;
55700;SDS011;41604;43.142;20.512;2024-02-04T13:26:22;18.00;;;9.23;;
55700;SDS011;41604;43.142;20.512;2024-02-04T13:28:48;20.15;;;10.32;;
55700;SDS011;41604;43.142;20.512;2024-02-04T13:31:14;15.43;;;9.05;;
55700;SDS011;41604;43.142;20.512;2024-02-04T13:33:40;15.25;;;8.23;;
55700;SDS011;41604;43.142;20.512;2024-02-04T13:36:07;14.40;;;8.80;;
55700;SDS011;41604;43.142;20.512;2024-02-04T13:38:34;20.77;;;10.82;;
55700;SDS011;41604;43.142;20.512;2024-02-04T13:41:00;20.83;;;13.80;;
55700;SDS011;41604;43.142;20.512;2024-02-04T13:43:27;19.90;;;12.27;;
55700;SDS011;41604;43.142;20.512;2024-02-04T13:45:53;19.08;;;11.00;;
55700;SDS011;41604;43.142;20.512;2024-02-04T13:48:19;19.40;;;9.32;;
55700;SDS011;41604;43.142;20.512;2024-02-04T13:50:47;12.68;;;8.43;;
55700;SDS011;41604;43.142;20.512;2024-02-04T13:53:13;18.10;;;9.85;;
55700;SDS011;41604;43.142;20.512;2024-02-04T13:55:39;23.02;;;12.27;;
55700;SDS011;41604;43.142;20.512;2024-02-04T13:58:05;18.23;;;9.80;;
55700;SDS011;41604;43.142;20.512;2024-02-04T14:00:32;18.08;;;8.48;;
55700;SDS011;41604;43.142;20.512;2024-02-04T14:02:58;17.77;;;8.30;;
55700;SDS011;41604;43.142;20.512;2024-02-04T14:05:24;19.55;;;9.75;;
55700;SDS011;41604;43.142;20.512;2024-02-04T14:07:51;30.95;;;12.82;;
55700;SDS011;41604;43.142;20.512;2024-02-04T14:10:17;26.77;;;12.32;;
55700;SDS011;41604;43.142;20.512;2024-02-04T14:12:43;20.23;;;10.55;;
55700;SDS011;41604;43.142;20.512;2024-02-04T14:15:10;23.23;;;10.90;;
55700;SDS011;41604;43.142;20.512;2024-02-04T14:17:37;18.77;;;8.70;;
55700;SDS011;41604;43.142;20.512;2024-02-04T14:20:05;23.45;;;10.48;;
55700;SDS011;41604;43.142;20.512;2024-02-04T14:22:34;23.50;;;11.30;;
55700;SDS011;41604;43.142;20.512;2024-02-04T14:25:02;19.85;;;10.73;;
55700;SDS011;41604;43.142;20.512;2024-02-04T14:27:28;16.65;;;8.60;;